Time;durP1;ratioP1;P1;durP2;ratioP2;P2;SDS_P1;SDS_P2;PMS_P1;PMS_P2;Temp;Humidity;BMP_temperature;BMP_pressure;BME280_temperature;BME280_humidity;BME280_pressure;Samples;Min_cycle;Max_cycle;Signal;HPM_P1;HPM_P2
2023/06/06 00:04:22;;;;;;;6.40;4.63;;;19.20;59.40;;;;;;20996166;28;20576;-59
2023/06/06 00:14:24;;;;;;;5.37;4.37;;;19.10;60.10;;;;;;20994794;28;20240;-59
2023/06/06 00:24:26;;;;;;;10.30;4.57;;;18.80;60.90;;;;;;20995007;28;20212;-59
2023/06/06 00:34:28;;;;;;;5.00;4.37;;;18.60;62.00;;;;;;20969404;28;20229;-59
2023/06/06 00:44:29;;;;;;;5.63;4.70;;;18.00;62.40;;;;;;20910982;28;20233;-62
2023/06/06 00:54:33;;;;;;;6.33;4.50;;;18.00;63.10;;;;;;20910652;28;20228;-61
2023/06/06 01:04:40;;;;;;;5.00;4.50;;;17.90;64.10;;;;;;20910935;28;20661;-61
2023/06/06 01:15:04;;;;;;;5.70;4.37;;;17.70;64.70;;;;;;20910517;28;20232;-61
2023/06/06 01:25:06;;;;;;;8.60;4.73;;;17.40;65.30;;;;;;20914534;28;20261;-60
2023/06/06 01:35:25;;;;;;;7.30;4.80;;;17.20;66.30;;;;;;20955338;28;20318;-66
2023/06/06 01:45:30;;;;;;;6.77;5.20;;;17.20;67.00;;;;;;20988091;28;20223;-66
2023/06/06 01:55:32;;;;;;;7.03;4.67;;;17.10;67.50;;;;;;21005035;28;20227;-68
2023/06/06 02:05:33;;;;;;;6.07;4.90;;;16.90;68.10;;;;;;21004841;28;20290;-68
2023/06/06 02:15:35;;;;;;;6.20;5.10;;;16.70;68.70;;;;;;21003706;28;20678;-61
2023/06/06 02:25:40;;;;;;;7.30;4.93;;;16.60;69.60;;;;;;21002879;28;20245;-67
2023/06/06 02:35:42;;;;;;;6.30;4.80;;;16.40;70.20;;;;;;20966184;28;20231;-66
2023/06/06 02:45:45;;;;;;;7.07;5.13;;;16.10;71.10;;;;;;20916860;28;20263;-66
2023/06/06 02:55:47;;;;;;;9.47;6.30;;;16.10;71.70;;;;;;20917510;28;20232;-60
2023/06/06 03:05:51;;;;;;;9.63;5.53;;;15.90;72.20;;;;;;20917102;28;20215;-60
2023/06/06 03:15:52;;;;;;;6.53;5.17;;;15.80;72.80;;;;;;20915904;28;20328;-60
2023/06/06 03:25:54;;;;;;;7.10;5.30;;;15.70;73.40;;;;;;20915346;28;20218;-61
2023/06/06 03:35:56;;;;;;;11.43;5.47;;;15.70;74.10;;;;;;20952135;28;20235;-60
2023/06/06 03:45:58;;;;;;;9.70;5.70;;;15.70;74.80;;;;;;20995958;28;20319;-60
2023/06/06 03:55:59;;;;;;;7.90;5.50;;;15.70;75.00;;;;;;20996116;28;20242;-59
2023/06/06 04:06:04;;;;;;;8.27;5.50;;;15.50;75.70;;;;;;20995962;28;20202;-62
2023/06/06 04:16:06;;;;;;;19.07;5.80;;;15.60;76.10;;;;;;20995133;28;20254;-61
2023/06/06 04:26:10;;;;;;;8.23;5.70;;;15.60;77.30;;;;;;20995041;28;20209;-60
2023/06/06 04:36:12;;;;;;;7.63;5.27;;;15.80;77.00;;;;;;20955169;28;20258;-60
2023/06/06 04:46:21;;;;;;;8.10;5.80;;;15.80;77.40;;;;;;20911787;28;20321;-63
2023/06/06 04:56:24;;;;;;;11.17;7.40;;;15.90;77.80;;;;;;20911589;28;20235;-65
2023/06/06 05:06:31;;;;;;;7.87;5.57;;;16.20;77.90;;;;;;20926643;28;20667;-64
2023/06/06 05:16:32;;;;;;;14.07;6.03;;;16.60;77.70;;;;;;20925611;28;20281;-67
2023/06/06 05:26:34;;;;;;;15.03;6.10;;;16.80;77.70;;;;;;20924603;28;20204;-66
2023/06/06 05:36:37;;;;;;;12.57;7.10;;;17.20;77.10;;;;;;20966359;28;20289;-64
2023/06/06 05:46:39;;;;;;;12.50;7.13;;;17.40;76.60;;;;;;20983234;28;20595;-63
2023/06/06 05:56:41;;;;;;;13.80;7.27;;;17.60;76.50;;;;;;20921787;28;20324;-62
2023/06/06 06:06:46;;;;;;;17.53;7.07;;;18.10;76.00;;;;;;20921138;28;20267;-65
2023/06/06 06:16:48;;;;;;;10.17;6.27;;;18.30;76.30;;;;;;20919499;28;20320;-62
2023/06/06 06:26:51;;;;;;;12.80;5.97;;;18.70;74.50;;;;;;20919317;28;20680;-60
2023/06/06 06:36:54;;;;;;;59.77;28.90;;;19.20;73.40;;;;;;20873421;28;20239;-66
2023/06/06 06:46:56;;;;;;;18.53;8.83;;;19.50;72.10;;;;;;20835786;28;20323;-63
2023/06/06 06:56:57;;;;;;;11.80;7.23;;;19.60;71.20;;;;;;20816829;28;20334;-65
2023/06/06 07:06:59;;;;;;;18.10;6.40;;;19.70;70.90;;;;;;20833910;28;20218;-61
2023/06/06 07:17:01;;;;;;;13.10;5.60;;;20.00;70.50;;;;;;20833626;28;20275;-62
2023/06/06 07:27:04;;;;;;;12.87;5.67;;;20.30;70.10;;;;;;20832414;28;20299;-60
2023/06/06 07:37:06;;;;;;;8.00;5.47;;;20.10;69.90;;;;;;20831176;28;20245;-60
2023/06/06 07:47:08;;;;;;;12.70;5.10;;;20.60;69.30;;;;;;20850398;28;20774;-60
2023/06/06 07:57:11;;;;;;;44.10;8.03;;;21.10;68.60;;;;;;20912824;28;20239;-66
2023/06/06 08:07:14;;;;;;;10.60;4.40;;;21.30;67.00;;;;;;20912468;28;20299;-61
2023/06/06 08:17:17;;;;;;;8.87;4.10;;;21.60;64.50;;;;;;20912228;28;20235;-60
2023/06/06 08:27:18;;;;;;;8.13;5.13;;;21.90;59.20;;;;;;20911339;28;20618;-60
2023/06/06 08:37:21;;;;;;;19.20;11.97;;;22.20;57.10;;;;;;20922158;28;20679;-61
2023/06/06 08:47:25;;;;;;;10.60;4.10;;;22.40;56.10;;;;;;20927625;28;20322;-62
2023/06/06 08:57:27;;;;;;;14.50;3.60;;;22.60;54.60;;;;;;20927220;28;20316;-62
2023/06/06 09:07:31;;;;;;;14.37;3.63;;;22.70;53.00;;;;;;20925840;28;20305;-62
2023/06/06 09:17:36;;;;;;;14.77;6.50;;;22.90;52.50;;;;;;20925212;28;20748;-63
2023/06/06 09:27:38;;;;;;;11.80;6.90;;;23.20;51.90;;;;;;20924992;28;20242;-65
2023/06/06 09:37:40;;;;;;;8.30;5.53;;;23.40;51.80;;;;;;20922092;28;20238;-60
2023/06/06 09:47:43;;;;;;;13.90;8.67;;;23.50;50.90;;;;;;20922380;28;20275;-60
2023/06/06 09:57:53;;;;;;;10.43;3.63;;;23.80;49.40;;;;;;20922386;28;20652;-63
2023/06/06 10:07:56;;;;;;;8.67;3.90;;;24.00;48.80;;;;;;20921321;28;20231;-60
2023/06/06 10:17:59;;;;;;;36.50;17.20;;;23.80;47.50;;;;;;20920531;28;20236;-60
2023/06/06 10:28:18;;;;;;;5.37;2.57;;;23.90;47.40;;;;;;20919980;28;20204;-61
2023/06/06 10:38:20;;;;;;;3.43;2.60;;;23.80;46.80;;;;;;20918857;28;20290;-62
2023/06/06 10:48:36;;;;;;;5.13;2.47;;;23.90;46.50;;;;;;20918329;28;20231;-66
2023/06/06 10:58:39;;;;;;;10.43;2.67;;;24.30;45.50;;;;;;20916881;28;20232;-67
2023/06/06 11:08:45;;;;;;;4.53;2.63;;;24.40;46.10;;;;;;20916319;28;20236;-62
2023/06/06 11:18:47;;;;;;;5.27;2.43;;;24.60;44.70;;;;;;20916009;28;20268;-61
2023/06/06 11:28:49;;;;;;;7.63;2.30;;;24.60;44.60;;;;;;20915019;28;20295;-63
2023/06/06 11:38:52;;;;;;;6.13;2.40;;;24.80;44.30;;;;;;20912742;28;20294;-61
2023/06/06 11:48:57;;;;;;;5.40;2.70;;;24.70;44.60;;;;;;20914113;28;20240;-63
2023/06/06 11:59:02;;;;;;;2.80;2.30;;;25.20;44.30;;;;;;20912502;28;20232;-63
2023/06/06 12:09:11;;;;;;;7.43;2.97;;;25.70;43.60;;;;;;20911934;28;20290;-63
2023/06/06 12:19:14;;;;;;;3.83;2.40;;;25.90;43.10;;;;;;20912265;28;20289;-62
2023/06/06 12:29:18;;;;;;;3.07;2.13;;;25.60;43.20;;;;;;20911591;28;20299;-67
2023/06/06 12:39:21;;;;;;;10.00;2.53;;;25.70;42.30;;;;;;20910697;28;20235;-60
2023/06/06 12:49:23;;;;;;;6.37;2.37;;;25.90;42.10;;;;;;20911151;28;20250;-70
2023/06/06 12:59:26;;;;;;;5.97;2.40;;;25.80;41.90;;;;;;20911480;28;20250;-72
2023/06/06 13:09:31;;;;;;;3.93;2.20;;;25.50;41.90;;;;;;20910203;28;20607;-70
2023/06/06 13:19:33;;;;;;;4.23;2.60;;;25.60;41.70;;;;;;20913722;28;20247;-70
2023/06/06 13:29:36;;;;;;;4.10;2.30;;;25.80;41.40;;;;;;20876101;28;20600;-70
2023/06/06 13:39:37;;;;;;;3.93;2.23;;;25.80;41.50;;;;;;20900088;28;20271;-71
2023/06/06 13:49:39;;;;;;;3.60;2.27;;;25.90;41.80;;;;;;20842705;28;20658;-66
2023/06/06 13:59:41;;;;;;;2.90;2.20;;;26.20;41.30;;;;;;20838544;28;20602;-65
2023/06/06 14:09:43;;;;;;;3.77;2.20;;;26.10;41.50;;;;;;20838243;28;20329;-69
2023/06/06 14:19:50;;;;;;;5.00;2.50;;;26.40;41.30;;;;;;20837799;28;20232;-71
2023/06/06 14:29:53;;;;;;;5.13;2.78;;;27.70;40.20;;;;;;20835983;28;20452;-69
2023/06/06 14:39:59;;;;;;;6.15;2.20;;;29.00;38.70;;;;;;20905894;28;20235;-69
2023/06/06 14:50:02;;;;;;;4.63;2.10;;;28.90;38.10;;;;;;20867867;28;20589;-67
2023/06/06 15:00:04;;;;;;;5.43;2.38;;;28.70;38.40;;;;;;20835179;28;20335;-66
2023/06/06 15:10:07;;;;;;;5.22;2.30;;;29.90;37.10;;;;;;20833810;28;20270;-65
2023/06/06 15:20:09;;;;;;;3.78;2.40;;;30.20;35.90;;;;;;20832597;28;20645;-65
2023/06/06 15:30:11;;;;;;;3.72;2.20;;;32.80;34.10;;;;;;20832964;28;20216;-61
2023/06/06 15:40:13;;;;;;;3.30;2.50;;;30.70;35.30;;;;;;20832604;28;20327;-61
2023/06/06 15:50:15;;;;;;;3.65;2.20;;;30.90;35.30;;;;;;20882147;28;20231;-61
2023/06/06 16:00:18;;;;;;;4.93;2.33;;;30.60;35.60;;;;;;20912925;28;20699;-61
2023/06/06 16:10:19;;;;;;;2.72;2.25;;;32.60;34.60;;;;;;20912036;28;20236;-61
2023/06/06 16:20:21;;;;;;;3.42;2.20;;;35.60;31.40;;;;;;20915206;28;20281;-62
2023/06/06 16:30:23;;;;;;;8.23;2.58;;;39.60;28.60;;;;;;20912240;28;20245;-61
2023/06/06 16:40:25;;;;;;;4.60;2.60;;;33.10;33.90;;;;;;20837495;28;20234;-61
2023/06/06 16:50:26;;;;;;;2.55;2.35;;;31.10;37.40;;;;;;20882291;28;20579;-61
2023/06/06 17:00:28;;;;;;;6.53;2.42;;;32.00;37.40;;;;;;20926120;28;20263;-62
2023/06/06 17:10:30;;;;;;;3.67;2.33;;;32.60;36.80;;;;;;20904030;28;20651;-68
2023/06/06 17:20:32;;;;;;;2.90;2.10;;;30.70;39.70;;;;;;20864248;28;20246;-64
2023/06/06 17:30:36;;;;;;;5.55;1.98;;;34.00;35.10;;;;;;20842383;28;20211;-69
2023/06/06 17:40:38;;;;;;;3.60;2.00;;;37.30;31.40;;;;;;20916948;28;20231;-62
2023/06/06 17:50:41;;;;;;;2.72;1.58;;;38.80;29.80;;;;;;20922868;28;20263;-70
2023/06/06 18:00:42;;;;;;;2.72;1.65;;;39.30;29.40;;;;;;20922329;28;20274;-64
2023/06/06 18:10:44;;;;;;;2.20;1.60;;;34.00;33.60;;;;;;20910741;28;20583;-69
2023/06/06 18:20:46;;;;;;;1.50;1.40;;;29.30;39.30;;;;;;20876051;28;20326;-61
2023/06/06 18:30:48;;;;;;;1.80;1.40;;;26.70;42.80;;;;;;20837653;28;20209;-69
2023/06/06 18:40:50;;;;;;;1.30;1.20;;;25.10;45.60;;;;;;20914007;28;20686;-70
2023/06/06 18:50:53;;;;;;;2.47;1.50;;;24.20;47.10;;;;;;20918180;28;20255;-67
2023/06/06 19:00:55;;;;;;;2.10;1.90;;;23.40;48.60;;;;;;20917841;28;20246;-63
2023/06/06 19:10:57;;;;;;;4.00;2.00;;;22.80;50.10;;;;;;20917022;28;20232;-62
2023/06/06 19:20:59;;;;;;;3.37;2.40;;;22.40;51.10;;;;;;20915857;28;20248;-61
2023/06/06 19:31:01;;;;;;;3.43;2.70;;;22.00;52.00;;;;;;20916065;28;20212;-62
2023/06/06 19:41:02;;;;;;;4.60;2.80;;;21.80;52.80;;;;;;20914947;28;20329;-61
2023/06/06 19:51:04;;;;;;;3.43;2.40;;;21.50;53.80;;;;;;20912690;28;20614;-60
2023/06/06 20:01:06;;;;;;;4.70;2.70;;;21.20;54.50;;;;;;20913102;28;20231;-60
2023/06/06 20:11:08;;;;;;;4.70;2.97;;;21.00;55.10;;;;;;20912196;28;20318;-60
2023/06/06 20:21:10;;;;;;;4.53;2.90;;;20.90;55.70;;;;;;20912006;28;20300;-60
2023/06/06 20:31:12;;;;;;;4.37;3.10;;;20.80;56.10;;;;;;20919203;28;20238;-61
2023/06/06 20:41:14;;;;;;;4.40;3.10;;;20.60;56.60;;;;;;20923986;28;20234;-60
2023/06/06 20:51:17;;;;;;;6.00;3.10;;;20.40;57.50;;;;;;20927008;28;20238;-60
2023/06/06 21:01:18;;;;;;;5.00;3.37;;;19.90;58.60;;;;;;20927037;28;20311;-60
2023/06/06 21:11:23;;;;;;;4.67;3.10;;;19.70;59.30;;;;;;20926146;28;20255;-59
2023/06/06 21:21:25;;;;;;;4.43;3.07;;;19.50;59.90;;;;;;20925015;28;20324;-60
2023/06/06 21:31:26;;;;;;;4.83;3.40;;;19.30;60.60;;;;;;20924567;28;20208;-60
2023/06/06 21:41:28;;;;;;;6.57;3.50;;;19.10;61.70;;;;;;20923831;28;20712;-60
2023/06/06 21:51:30;;;;;;;6.77;3.90;;;18.90;62.80;;;;;;20923012;28;20269;-60
2023/06/06 22:01:32;;;;;;;5.90;3.50;;;18.60;63.80;;;;;;20922604;28;20331;-60
2023/06/06 22:11:33;;;;;;;5.67;3.43;;;18.40;65.10;;;;;;20921505;28;20220;-60
2023/06/06 22:21:36;;;;;;;5.30;3.57;;;18.40;65.80;;;;;;20899830;28;20696;-61
2023/06/06 22:31:38;;;;;;;5.17;3.80;;;18.20;66.90;;;;;;20840562;28;20239;-63
2023/06/06 22:41:39;;;;;;;10.07;3.80;;;18.10;68.10;;;;;;20919444;28;20702;-66
2023/06/06 22:51:41;;;;;;;4.13;3.60;;;17.90;69.00;;;;;;20917666;28;20240;-61
2023/06/06 23:01:43;;;;;;;5.07;4.00;;;17.80;70.10;;;;;;20917724;28;20235;-65
2023/06/06 23:11:45;;;;;;;9.30;3.77;;;17.80;71.00;;;;;;20917941;28;20222;-61
2023/06/06 23:21:47;;;;;;;5.97;3.93;;;17.70;71.60;;;;;;20915992;28;20232;-60
2023/06/06 23:31:49;;;;;;;6.27;3.70;;;17.60;72.40;;;;;;20915595;28;20269;-60
2023/06/06 23:41:50;;;;;;;6.10;3.70;;;17.50;73.90;;;;;;20906188;28;20240;-60
2023/06/06 23:51:52;;;;;;;4.23;3.83;;;17.60;73.40;;;;;;20896065;28;20718;-60
